CST,Max TemperatureF,Mean TemperatureF,Min TemperatureF,Max Dew PointF,MeanDew PointF,Min DewpointF,Max Humidity, Mean Humidity, Min Humidity, Max Sea Level PressureIn, Mean Sea Level PressureIn, Min Sea Level PressureIn, Max VisibilityMiles, Mean VisibilityMiles, Min VisibilityMiles, Max Wind SpeedMPH, Mean Wind SpeedMPH, Max Gust SpeedMPH,PrecipitationIn, CloudCover, Events, WindDirDegrees
2013-2-1,37,26,14,12,5,0,57,42,30,30.49,30.36,30.22,10,10,10,12,6,20,0.00,0,,122
2013-2-2,53,38,23,28,21,12,74,53,35,30.24,30.17,30.14,10,10,10,16,4,24,0.00,0,,287
2013-2-3,53,45,37,27,23,18,57,42,24,30.24,30.14,30.01,10,10,10,18,9,24,0.01,0,,290
2013-2-4,55,48,41,43,35,19,81,64,37,30.01,29.89,29.82,10,10,2,13,4,17,0.00,3,,194
2013-2-5,66,47,28,41,31,23,87,59,30,30.07,29.97,29.92,10,9,0,9,2,,0.00,0,,4
2013-2-6,55,42,28,36,31,25,86,59,44,30.19,30.09,30.01,10,10,10,12,4,18,0.00,1,,110
2013-2-7,62,50,39,52,42,34,82,73,58,30.03,29.93,29.84,10,10,5,14,3,20,0.00,6,,11
2013-2-8,51,43,35,37,29,27,71,61,41,30.31,30.22,30.04,10,10,7,14,8,21,0.00,5,,30
2013-2-9,39,36,32,32,27,25,81,70,61,30.28,30.16,29.97,10,9,5,12,8,18,0.00,7,,111
2013-2-10,66,52,37,52,36,25,87,62,23,30.00,29.77,29.64,10,8,0,26,9,37,0.00,4,Thunderstorm,195
2013-2-11,55,44,33,27,24,21,70,48,28,30.18,30.11,30.01,10,10,10,14,7,23,0.00,0,,306
2013-2-12,46,36,26,32,27,21,86,67,49,30.13,30.01,29.87,10,10,5,9,2,,0.00,4,,35
2013-2-13,53,44,35,34,30,27,81,66,38,30.00,29.94,29.89,10,10,5,16,6,21,0.00,4,,270
2013-2-14,60,46,33,30,28,25,70,47,29,30.11,30.00,29.93,10,10,10,10,4,,0.00,0,,312
2013-2-15,46,40,35,27,23,18,56,49,34,30.28,30.20,30.11,10,10,10,15,9,21,0.00,3,,315
2013-2-16,,,,,,,,,,,,,,,,,,,,,,
2013-2-17,,,,,,,,,,,,,,,,,,,,,,
2013-2-18,55,50,44,46,40,32,77,66,44,29.87,29.73,29.63,10,10,4,28,12,48,0.00,6,Thunderstorm,237
2013-2-19,46,40,33,18,14,10,42,34,25,30.28,30.26,30.24,10,10,10,16,13,24,0.00,0,,308
2013-2-20,30,29,28,10,9,7,47,43,40,30.33,30.32,30.31,10,10,10,6,4,,0.00,4,,82
2013-2-21,,,,,,,,,,,,,,,,,,,,,,
2013-2-22,30,29,26,19,19,19,74,67,64,30.09,30.08,30.07,10,10,10,7,4,,0.00,0,,294
2013-2-23,26,26,26,19,19,18,74,72,69,30.09,30.08,30.08,10,10,10,4,1,,0.00,0,,245
2013-2-24,,,,,,,,,,,,,,,,,,,,,,
2013-2-25,,,,,,,,,,,,,,,,,,,,,,
2013-2-26,,,,,,,,,,,,,,,,,,,,,,
2013-2-27,,,,,,,,,,,,,,,,,,,,,,
2013-2-28,,,,,,,,,,,,,,,,,,,,,,